Flight Track Log - Related Links

Times and Time Zones

All times are in EDT time to prevent confusion due to time zone crossing. See the SWA303 flight status page for this flight to view local times or setup timezone preferences in your user account.


Time Position Orientation Groundspeed Altitude Reporting Facility
EDT Latitude Longitude Course Direction KTS MPH feet Rate Location/Type
Fri 05:48:54 PM 32.7406 -117.2119 303° West 135 155 1,000  Level Los Angeles Center
Fri 05:49:56 PM 32.7775 -117.2789 303° West 204 235 3,300 2,177 Climbing Los Angeles Center
Fri 05:50:58 PM 32.8247 -117.3447 310° West 257 296 5,500 2,613 Climbing Los Angeles Center
Fri 05:52:00 PM 32.8786 -117.4186 311° West 287 330 8,700 2,903 Climbing Los Angeles Center
Fri 05:53:02 PM 32.9336 -117.4967 310° West 309 356 11,500 2,640 Climbing Los Angeles Center
Fri 05:54:05 PM 33.0000 -117.5867 311° West 353 406 14,200 2,688 Climbing Los Angeles Center
Fri 05:55:07 PM 33.0694 -117.6814 311° West 372 428 17,100 2,952 Climbing Los Angeles Center
Fri 05:56:09 PM 33.1556 -117.7983 311° West 387 445 20,300 2,710 Climbing Los Angeles Center
Fri 05:57:11 PM 33.2683 -117.8108 355° North 401 461 22,700 2,226 Climbing Los Angeles Center
Fri 05:58:13 PM 33.3839 -117.8072 North 411 473 24,900 2,081 Climbing Los Angeles Center
Fri 05:59:15 PM 33.5044 -117.8031 North 428 493 27,000 1,984 Climbing Los Angeles Center
Fri 06:00:17 PM 33.6517 -117.7989 North 442 509 29,000 960 Climbing Los Angeles Center
Fri 06:01:20 PM 33.7736 -117.7950 North 443 510 29,000  Level Los Angeles Center
Fri 06:02:22 PM 33.8950 -117.7917 North 442 509 29,000  Level Los Angeles Center
Fri 06:03:24 PM 34.0158 -117.7881 North 441 507 29,000  Level Los Angeles Center
Fri 06:04:26 PM 34.1244 -117.7269 25° Northeast 451 519 29,000  Level Los Angeles Center
Fri 06:05:28 PM 34.2250 -117.5906 48° Northeast 452 520 29,000  Level Los Angeles Center
Fri 06:06:30 PM 34.3089 -117.4756 49° Northeast 453 521 29,000  Level Los Angeles Center
Fri 06:07:33 PM 34.3964 -117.3556 49° Northeast 457 526 29,000  Level Los Angeles Center
Fri 06:08:35 PM 34.4806 -117.2400 49° Northeast 457 526 29,000  Level Los Angeles Center
Fri 06:09:37 PM 34.5650 -117.1256 48° Northeast 458 527 29,000  Level Los Angeles Center
Fri 06:10:39 PM 34.6489 -117.0086 49° Northeast 458 527 29,000  Level Los Angeles Center
Fri 06:11:41 PM 34.7331 -116.8931 48° Northeast 458 527 29,000  Level Los Angeles Center
Fri 06:12:43 PM 34.8350 -116.7531 48° Northeast 461 531 29,000 -194 Level Los Angeles Center
Fri 06:13:45 PM 34.9183 -116.6367 49° Northeast 460 529 28,600 -1,248 Descending Los Angeles Center
Fri 06:14:48 PM 35.0033 -116.5231 48° Northeast 459 528 26,400 -2,112 Descending Los Angeles Center
Fri 06:15:50 PM 35.0886 -116.4169 46° Northeast 445 512 24,200 -1,161 Descending Los Angeles Center
Fri 06:16:52 PM 35.1689 -116.3172 45° Northeast 423 487 24,000 -484 Descending Los Angeles Center
Fri 06:17:54 PM 35.2650 -116.1981 45° Northeast 413 475 23,200 -1,392 Descending Los Angeles Center
Fri 06:18:57 PM 35.3422 -116.1006 46° Northeast 400 460 21,100 -1,984 Descending Los Angeles Center
Fri 06:19:58 PM 35.4172 -116.0056 46° Northeast 389 448 19,100 -2,129 Descending Los Angeles Center
Fri 06:20:30 PM 35.4661 -115.9450 45° Northeast 388 447 17,800 -1,935 Descending Los Angeles Center
Fri 06:21:00 PM 35.4922 -115.9136 44° Northeast 383 441 17,100 -1,742 Descending Los Angeles Center
Fri 06:22:03 PM 35.5656 -115.8192 46° Northeast 369 425 15,100 -1,920 Descending Los Angeles Center
Fri 06:23:05 PM 35.6272 -115.7236 52° Northeast 361 415 13,100 -1,839 Descending Los Angeles Center
Fri 06:24:07 PM 35.6964 -115.6131 52° Northeast 345 397 11,300 -1,645 Descending Los Angeles Center
Fri 06:25:09 PM 35.7519 -115.5269 52° Northeast 316 364 9,700 -1,548 Descending Los Angeles Center
Fri 06:26:11 PM 35.8036 -115.4458 52° Northeast 299 344 8,100 -976 Descending Los Angeles Center
Fri 06:27:12 PM 35.8694 -115.4006 29° Northeast 264 304 7,700 -750 Descending Los Angeles Center
Fri 06:28:19 PM 35.9469 -115.3594 23° Northeast 253 291 6,500 -1,048 Descending Los Angeles Center
Fri 06:29:18 PM 36.0056 -115.3161 31° Northeast 242 278 5,500 -1,041 Descending Los Angeles Center
Fri 06:30:20 PM 36.0467 -115.2828 33° Northeast 182 209 4,400 -1,122 Descending Los Angeles Center
Fri 06:31:21 PM 36.0689 -115.2344 60° Northeast 154 177 3,200 -984 Descending Los Angeles Center
Fri 06:32:22 PM 36.0742 -115.1794 83° East 160 184 2,400 -787 Descending Los Angeles Center
Fri 06:34:00 PM 36.0801 -115.1523 90° East  Level Estimated

Login

Don't have an account? Register now (free) for customized features, flight alerts, and more!